Marley — ONHT — position and weather

sailwx.info

Track history (hours):
 
Tides and Currents Weather Stations Pressure Air Temp Water Temp Dewpoint Dewpoint Depression Visibility Wind Speed Wind Dir Waves Ship Positions

Marley

Last reported at 2017-Sep-18 16:09 UTC. Time now 2017-Sep-20 00:15 UTC.
Position N 39°31' W 009°50'.

Length 91 m; draft 4.8 m.

Type: Cargo ship. MMSI: 205656000.

Date/timePositionNaut miles runAvg speedWind from/ knotsBaromVisibWave heightAir tempDewpointWater temp
2017-Sep-18 16:09N 39°31' W 009°50'2 8.6
2017-Sep-18 15:58N 39°29' W 009°49'4 8.7
2017-Sep-18 15:29N 39°25' W 009°50'4 8.9
2017-Sep-18 15:01N 39°21' W 009°50'4 8.7
2017-Sep-18 14:31N 39°16' W 009°50'4 8.8
2017-Sep-18 14:00N 39°12' W 009°50'4 9.0
2017-Sep-18 13:31N 39°07' W 009°50'4 8.7
2017-Sep-18 13:01N 39°03' W 009°50'4 8.7
2017-Sep-18 12:31N 38°59' W 009°50'4 8.8
2017-Sep-18 12:01N 38°54' W 009°50'5 9.2
2017-Sep-18 11:30N 38°50' W 009°50'4 9.0
2017-Sep-18 11:00N 38°45' W 009°50'4 8.8
2017-Sep-18 10:31N 38°41' W 009°50'4 8.5
2017-Sep-18 10:01N 38°37' W 009°49'4 8.2
2017-Sep-18 09:31N 38°33' W 009°48'4 8.5
2017-Sep-18 09:01N 38°28' W 009°47'5 8.8
2017-Sep-18 08:29N 38°24' W 009°45'5 8.7
2017-Sep-18 07:58N 38°20' W 009°44'4 9.0
2017-Sep-18 07:29N 38°15' W 009°42'5 9.1
2017-Sep-18 06:59N 38°11' W 009°41'4 9.0
2017-Sep-18 06:30N 38°07' W 009°40'6 8.9
2017-Sep-18 05:52N 38°01' W 009°38'3 8.8
2017-Sep-18 05:30N 37°58' W 009°37'5 8.8
2017-Sep-18 04:55N 37°53' W 009°35'4 8.8
2017-Sep-18 04:30N 37°50' W 009°35'4 8.6
2017-Sep-18 04:00N 37°45' W 009°33'4 8.9
2017-Sep-18 03:30N 37°41' W 009°32'4 8.9
2017-Sep-18 03:00N 37°37' W 009°31'8 8.7
2017-Sep-18 02:07N 37°29' W 009°29'2 9.1
2017-Sep-18 01:55N 37°27' W 009°28'68 7.7
2017-Sep-17 17:04N 36°35' W 008°34'14 8.6
2017-Sep-17 15:27N 36°31' W 008°17'4 8.8
2017-Sep-17 15:00N 36°30' W 008°13'4 8.8
2017-Sep-17 14:30N 36°28' W 008°08'125 8.5
2017-Sep-16 23:46N 35°58' W 005°37'2 7.9
2017-Sep-16 23:28N 35°59' W 005°35'4 7.7
2017-Sep-16 22:58N 35°60' W 005°30'3 7.4
2017-Sep-16 22:30N 36°01' W 005°26'  
2017-Sep-14 13:34N 36°00' W 005°23'1 9.5
2017-Sep-14 13:30N 35°59' W 005°24'712.8
2017-Sep-14 12:59N 35°57' W 005°31'83 9.6
2017-Sep-14 04:20N 34°56' W 006°40'15 8.9
2017-Sep-14 02:39N 34°44' W 006°52'63 9.1
2017-Sep-13 19:44N 33°49' W 007°30'  
2017-Sep-11 07:17N 35°27' W 008°48'8 9.1
2017-Sep-11 06:22N 35°34' W 008°52'4 9.3
2017-Sep-11 05:55N 35°38' W 008°55'5 8.9
2017-Sep-11 05:18N 35°43' W 008°58'3 9.0
2017-Sep-11 05:00N 35°45' W 008°60'5 9.1
2017-Sep-11 04:29N 35°49' W 009°03'5 9.3
2017-Sep-11 04:00N 35°53' W 009°06'14 9.1
2017-Sep-11 02:28N 36°05' W 009°14'79 9.1
2017-Sep-10 17:45N 37°19' W 009°49'4 9.5
2017-Sep-10 17:17N 37°24' W 009°50'32 9.4
2017-Sep-10 13:57N 37°55' W 009°56'4 9.6
2017-Sep-10 13:30N 37°59' W 009°56'5 9.5
2017-Sep-10 13:00N 38°04' W 009°58'6 9.2
2017-Sep-10 12:23N 38°09' W 009°59'4 9.3
2017-Sep-10 11:56N 38°14' W 009°60'4 9.5
2017-Sep-10 11:30N 38°18' W 010°01'5 9.3
2017-Sep-10 11:00N 38°22' W 010°01'510.1
2017-Sep-10 10:30N 38°27' W 010°02'5 9.6
2017-Sep-10 10:00N 38°32' W 010°03'6 9.4
2017-Sep-10 09:24N 38°38' W 010°04'4 9.6
2017-Sep-10 09:00N 38°41' W 010°05'5 9.7
2017-Sep-10 08:30N 38°46' W 010°05'5 9.9
2017-Sep-10 08:00N 38°51' W 010°05'510.0
2017-Sep-10 07:30N 38°56' W 010°04'510.2
2017-Sep-10 06:59N 39°01' W 010°04'5 9.4
2017-Sep-10 06:30N 39°06' W 010°05'  
Track history (hours):
 
Tides and Currents Weather Stations Pressure Air Temp Water Temp Dewpoint Dewpoint Depression Visibility Wind Speed Wind Dir Waves Ship Positions

Marley

Last reported at 2017-Sep-18 16:09 UTC. Time now 2017-Sep-20 00:15 UTC.
Position N 39°31' W 009°50'.

Length 91 m; draft 4.8 m.

Type: Cargo ship. MMSI: 205656000.

Date/timePositionNaut miles runAvg speedWind from/ knotsBaromVisibWave heightAir tempDewpointWater temp
2017-Sep-18 16:09N 39°31' W 009°50'2 8.6
2017-Sep-18 15:58N 39°29' W 009°49'4 8.7
2017-Sep-18 15:29N 39°25' W 009°50'4 8.9
2017-Sep-18 15:01N 39°21' W 009°50'4 8.7
2017-Sep-18 14:31N 39°16' W 009°50'4 8.8
2017-Sep-18 14:00N 39°12' W 009°50'4 9.0
2017-Sep-18 13:31N 39°07' W 009°50'4 8.7
2017-Sep-18 13:01N 39°03' W 009°50'4 8.7
2017-Sep-18 12:31N 38°59' W 009°50'4 8.8
2017-Sep-18 12:01N 38°54' W 009°50'5 9.2
2017-Sep-18 11:30N 38°50' W 009°50'4 9.0
2017-Sep-18 11:00N 38°45' W 009°50'4 8.8
2017-Sep-18 10:31N 38°41' W 009°50'4 8.5
2017-Sep-18 10:01N 38°37' W 009°49'4 8.2
2017-Sep-18 09:31N 38°33' W 009°48'4 8.5
2017-Sep-18 09:01N 38°28' W 009°47'5 8.8
2017-Sep-18 08:29N 38°24' W 009°45'5 8.7
2017-Sep-18 07:58N 38°20' W 009°44'4 9.0
2017-Sep-18 07:29N 38°15' W 009°42'5 9.1
2017-Sep-18 06:59N 38°11' W 009°41'4 9.0
2017-Sep-18 06:30N 38°07' W 009°40'6 8.9
2017-Sep-18 05:52N 38°01' W 009°38'3 8.8
2017-Sep-18 05:30N 37°58' W 009°37'5 8.8
2017-Sep-18 04:55N 37°53' W 009°35'4 8.8
2017-Sep-18 04:30N 37°50' W 009°35'4 8.6
2017-Sep-18 04:00N 37°45' W 009°33'4 8.9
2017-Sep-18 03:30N 37°41' W 009°32'4 8.9
2017-Sep-18 03:00N 37°37' W 009°31'8 8.7
2017-Sep-18 02:07N 37°29' W 009°29'2 9.1
2017-Sep-18 01:55N 37°27' W 009°28'68 7.7
2017-Sep-17 17:04N 36°35' W 008°34'14 8.6
2017-Sep-17 15:27N 36°31' W 008°17'4 8.8
2017-Sep-17 15:00N 36°30' W 008°13'4 8.8
2017-Sep-17 14:30N 36°28' W 008°08'125 8.5
2017-Sep-16 23:46N 35°58' W 005°37'2 7.9
2017-Sep-16 23:28N 35°59' W 005°35'4 7.7
2017-Sep-16 22:58N 35°60' W 005°30'3 7.4
2017-Sep-16 22:30N 36°01' W 005°26'  
2017-Sep-14 13:34N 36°00' W 005°23'1 9.5
2017-Sep-14 13:30N 35°59' W 005°24'712.8
2017-Sep-14 12:59N 35°57' W 005°31'83 9.6
2017-Sep-14 04:20N 34°56' W 006°40'15 8.9
2017-Sep-14 02:39N 34°44' W 006°52'63 9.1
2017-Sep-13 19:44N 33°49' W 007°30'  
2017-Sep-11 07:17N 35°27' W 008°48'8 9.1
2017-Sep-11 06:22N 35°34' W 008°52'4 9.3
2017-Sep-11 05:55N 35°38' W 008°55'5 8.9
2017-Sep-11 05:18N 35°43' W 008°58'3 9.0
2017-Sep-11 05:00N 35°45' W 008°60'5 9.1
2017-Sep-11 04:29N 35°49' W 009°03'5 9.3
2017-Sep-11 04:00N 35°53' W 009°06'14 9.1
2017-Sep-11 02:28N 36°05' W 009°14'79 9.1
2017-Sep-10 17:45N 37°19' W 009°49'4 9.5
2017-Sep-10 17:17N 37°24' W 009°50'32 9.4
2017-Sep-10 13:57N 37°55' W 009°56'4 9.6
2017-Sep-10 13:30N 37°59' W 009°56'5 9.5
2017-Sep-10 13:00N 38°04' W 009°58'6 9.2
2017-Sep-10 12:23N 38°09' W 009°59'4 9.3
2017-Sep-10 11:56N 38°14' W 009°60'4 9.5
2017-Sep-10 11:30N 38°18' W 010°01'5 9.3
2017-Sep-10 11:00N 38°22' W 010°01'510.1
2017-Sep-10 10:30N 38°27' W 010°02'5 9.6
2017-Sep-10 10:00N 38°32' W 010°03'6 9.4
2017-Sep-10 09:24N 38°38' W 010°04'4 9.6
2017-Sep-10 09:00N 38°41' W 010°05'5 9.7
2017-Sep-10 08:30N 38°46' W 010°05'5 9.9
2017-Sep-10 08:00N 38°51' W 010°05'510.0
2017-Sep-10 07:30N 38°56' W 010°04'510.2
2017-Sep-10 06:59N 39°01' W 010°04'5 9.4
2017-Sep-10 06:30N 39°06' W 010°05'  

Dump ship's entire track history